createdAt,value
2024-04-24T00:00:05.632Z,99264.72
2024-04-24T00:00:36.407Z,99266.50
2024-04-24T00:01:07.213Z,99263.56
2024-04-24T00:01:38.127Z,99259.91
2024-04-24T00:02:09.176Z,99268.53
2024-04-24T00:02:40.108Z,99262.28
2024-04-24T00:03:10.968Z,99260.19
2024-04-24T00:03:41.954Z,99263.75
2024-04-24T00:04:12.787Z,99263.75
2024-04-24T00:04:43.617Z,99259.78
2024-04-24T00:05:14.434Z,99258.09
2024-04-24T00:05:45.502Z,99259.75
2024-04-24T00:06:16.418Z,99263.88
2024-04-24T00:06:47.216Z,99260.34
2024-04-24T00:07:18.051Z,99260.94
2024-04-24T00:07:48.934Z,99258.97
2024-04-24T00:08:19.817Z,99264.47
2024-04-24T00:08:50.669Z,99261.03
2024-04-24T00:09:21.458Z,99258.66
2024-04-24T00:09:52.258Z,99262.59
2024-04-24T00:10:23.041Z,99259.16
2024-04-24T00:10:53.890Z,99252.06
2024-04-24T00:11:26.302Z,99260.78
2024-04-24T00:11:57.214Z,99253.25
2024-04-24T00:12:28.179Z,99250.91
2024-04-24T00:12:58.968Z,99249.03
2024-04-24T00:13:29.751Z,99247.84
2024-04-24T00:14:00.557Z,99253.31
2024-04-24T00:14:31.365Z,99251.28
2024-04-24T00:15:02.191Z,99248.09
2024-04-24T00:15:33.001Z,99250.44
2024-04-24T00:16:04.184Z,99243.53
2024-04-24T00:16:35.604Z,99247.97
2024-04-24T00:17:06.447Z,99247.72
2024-04-24T00:17:37.358Z,99247.88
2024-04-24T00:18:08.242Z,99250.22
2024-04-24T00:18:41.181Z,99251.03
2024-04-24T00:19:12.048Z,99250.78
2024-04-24T00:19:42.838Z,99249.50
2024-04-24T00:20:13.685Z,99243.94
2024-04-24T00:20:44.490Z,99251.59
2024-04-24T00:21:15.348Z,99250.22
2024-04-24T00:21:46.215Z,99254.19
2024-04-24T00:22:17.003Z,99247.97
2024-04-24T00:22:48.081Z,99248.78
2024-04-24T00:23:18.973Z,99249.53
2024-04-24T00:23:49.829Z,99246.63
2024-04-24T00:24:20.637Z,99244.94
2024-04-24T00:24:51.537Z,99246.75
2024-04-24T00:25:22.345Z,99247.34
2024-04-24T00:25:56.942Z,99249.47
2024-04-24T00:26:28.126Z,99249.63
2024-04-24T00:26:58.931Z,99249.13
2024-04-24T00:27:29.752Z,99246.84
2024-04-24T00:28:00.551Z,99254.31
2024-04-24T00:28:31.341Z,99245.09
2024-04-24T00:29:02.181Z,99239.78
2024-04-24T00:29:32.974Z,99245.94
2024-04-24T00:30:03.965Z,99246.22
2024-04-24T00:30:34.744Z,99237.06
2024-04-24T00:31:05.681Z,99237.88
2024-04-24T00:31:36.535Z,99244.09
2024-04-24T00:32:07.474Z,99251.22
2024-04-24T00:32:39.582Z,99237.97
2024-04-24T00:33:10.602Z,99239.47
2024-04-24T00:33:41.583Z,99242.00
2024-04-24T00:34:12.432Z,99237.19
2024-04-24T00:34:43.221Z,99238.47
2024-04-24T00:35:14.124Z,99227.34
2024-04-24T00:35:45.041Z,99234.16
2024-04-24T00:36:15.929Z,99242.28
2024-04-24T00:36:46.747Z,99233.25
2024-04-24T00:37:17.600Z,99241.63
2024-04-24T00:37:48.416Z,99235.31
2024-04-24T00:38:19.266Z,99242.44
2024-04-24T00:38:50.190Z,99240.22
2024-04-24T00:39:21.060Z,99243.47
2024-04-24T00:39:52.101Z,99235.81
2024-04-24T00:40:22.886Z,99239.47
2024-04-24T00:40:53.686Z,99234.13
2024-04-24T00:41:24.548Z,99232.53
2024-04-24T00:41:55.417Z,99245.81
2024-04-24T00:42:26.240Z,99235.72
2024-04-24T00:42:57.025Z,99227.38
2024-04-24T00:43:27.819Z,99231.97
2024-04-24T00:43:58.644Z,99236.84
2024-04-24T00:44:29.564Z,99240.59
2024-04-24T00:45:00.370Z,99238.41
2024-04-24T00:45:31.170Z,99239.75
2024-04-24T00:46:02.771Z,99225.84
2024-04-24T00:46:35.080Z,99227.94
2024-04-24T00:47:06.026Z,99234.19
2024-04-24T00:47:38.536Z,99227.19
2024-04-24T00:48:10.207Z,99235.84
2024-04-24T00:48:42.820Z,99229.91
2024-04-24T00:49:14.526Z,99228.78
2024-04-24T00:49:46.797Z,99226.69
2024-04-24T00:50:18.761Z,99228.75
2024-04-24T00:50:50.074Z,99229.13
2024-04-24T00:51:22.024Z,99230.97
2024-04-24T00:51:53.510Z,99228.19
2024-04-24T00:52:24.413Z,99223.72
2024-04-24T00:52:55.344Z,99221.63
2024-04-24T00:53:26.194Z,99228.25
2024-04-24T00:53:57.015Z,99230.50
2024-04-24T00:54:28.094Z,99230.22
2024-04-24T00:54:59.030Z,99223.22
2024-04-24T00:55:30.248Z,99220.34
2024-04-24T00:56:04.182Z,99223.94
2024-04-24T00:56:35.113Z,99226.00
2024-04-24T00:57:06.553Z,99218.59
2024-04-24T00:57:37.374Z,99226.19
2024-04-24T00:58:08.161Z,99230.97
2024-04-24T00:58:39.071Z,99230.75
2024-04-24T00:59:10.357Z,99218.53
2024-04-24T00:59:41.223Z,99222.38
2024-04-24T01:00:12.138Z,99224.03
2024-04-24T01:00:44.197Z,99227.94
2024-04-24T01:01:15.363Z,99226.22
2024-04-24T01:01:46.220Z,99227.50
2024-04-24T01:02:17.144Z,99223.22
2024-04-24T01:02:48.201Z,99220.75
2024-04-24T01:03:20.222Z,99221.72
2024-04-24T01:03:51.101Z,99218.97
2024-04-24T01:04:21.961Z,99224.50
2024-04-24T01:04:52.784Z,99212.28
2024-04-24T01:05:23.728Z,99219.94
2024-04-24T01:05:54.616Z,99221.91
2024-04-24T01:06:25.405Z,99225.22
2024-04-24T01:06:56.547Z,99216.88
2024-04-24T01:07:27.420Z,99211.84
2024-04-24T01:07:58.334Z,99215.16
2024-04-24T01:08:29.441Z,99220.13
2024-04-24T01:09:00.251Z,99222.75
2024-04-24T01:09:32.596Z,99226.00
2024-04-24T01:10:18.897Z,99216.63
2024-04-24T01:10:56.612Z,99217.69
2024-04-24T01:11:31.513Z,99217.53
2024-04-24T01:12:02.554Z,99211.84
2024-04-24T01:12:33.528Z,99218.28
2024-04-24T01:13:04.374Z,99208.94
2024-04-24T01:13:35.585Z,99214.53
2024-04-24T01:14:06.424Z,99209.75
2024-04-24T01:14:37.233Z,99210.81
2024-04-24T01:15:08.605Z,99211.34
2024-04-24T01:15:42.074Z,99210.81
2024-04-24T01:16:18.400Z,99216.59
2024-04-24T01:16:49.747Z,99212.63
2024-04-24T01:17:20.805Z,99209.47
2024-04-24T01:17:53.911Z,99206.97
2024-04-24T01:18:26.591Z,99209.59
2024-04-24T01:19:04.044Z,99199.69
2024-04-24T01:19:43.793Z,99214.28
2024-04-24T01:20:22.045Z,99209.22
2024-04-24T01:20:54.579Z,99206.75
2024-04-24T01:21:39.319Z,99201.72
2024-04-24T01:22:12.743Z,99202.38
2024-04-24T01:23:17.225Z,99202.28
2024-04-24T01:23:58.997Z,99206.25
2024-04-24T01:24:34.700Z,99199.50
2024-04-24T01:25:34.089Z,99197.88
2024-04-24T01:26:24.718Z,99206.13
2024-04-24T01:26:55.905Z,99199.28
2024-04-24T01:27:26.803Z,99205.50
2024-04-24T01:27:57.593Z,99200.69
2024-04-24T01:28:28.465Z,99200.47
2024-04-24T01:28:59.424Z,99202.34
2024-04-24T01:29:30.207Z,99198.97
2024-04-24T01:30:01.006Z,99194.63
2024-04-24T01:30:31.837Z,99199.72
2024-04-24T01:31:03.662Z,99204.91
2024-04-24T01:31:34.464Z,99201.91
2024-04-24T01:32:05.479Z,99193.34
2024-04-24T01:32:36.544Z,99195.78
2024-04-24T01:33:07.559Z,99190.97
2024-04-24T01:33:38.622Z,99193.00
2024-04-24T01:34:09.519Z,99196.97
2024-04-24T01:34:40.309Z,99194.56
2024-04-24T01:35:11.168Z,99192.28
2024-04-24T01:35:42.123Z,99192.25
2024-04-24T01:36:12.924Z,99199.09
2024-04-24T01:36:43.769Z,99195.16
2024-04-24T01:37:14.569Z,99193.34
2024-04-24T01:37:45.431Z,99195.22
2024-04-24T01:38:16.579Z,99195.88
2024-04-24T01:38:47.458Z,99187.84
2024-04-24T01:39:18.268Z,99196.50
2024-04-24T01:39:49.335Z,99192.34
2024-04-24T01:40:20.140Z,99190.63
2024-04-24T01:40:50.935Z,99189.44
2024-04-24T01:41:21.821Z,99190.03
2024-04-24T01:41:52.617Z,99186.50
2024-04-24T01:42:23.409Z,99185.81
2024-04-24T01:42:54.234Z,99188.22
2024-04-24T01:43:25.038Z,99185.28
2024-04-24T01:43:56.059Z,99182.81
2024-04-24T01:44:26.971Z,99187.03
2024-04-24T01:44:57.884Z,99179.31
2024-04-24T01:45:28.689Z,99174.88
2024-04-24T01:45:59.489Z,99184.56
2024-04-24T01:46:30.290Z,99182.91
2024-04-24T01:47:01.212Z,99184.09
2024-04-24T01:47:32.215Z,99183.78
2024-04-24T01:48:03.503Z,99181.91
2024-04-24T01:48:34.811Z,99179.88
2024-04-24T01:49:05.663Z,99177.81
2024-04-24T01:49:36.508Z,99184.72
2024-04-24T01:50:07.425Z,99175.94
2024-04-24T01:50:38.254Z,99187.13
2024-04-24T01:51:09.080Z,99179.13
2024-04-24T01:51:39.878Z,99175.28
2024-04-24T01:52:10.782Z,99181.16
2024-04-24T01:52:41.568Z,99188.38
2024-04-24T01:53:12.459Z,99181.97
2024-04-24T01:53:43.331Z,99183.88
2024-04-24T01:54:14.112Z,99179.34
2024-04-24T01:54:45.052Z,99184.56
2024-04-24T01:55:15.825Z,99181.81
2024-04-24T01:55:46.630Z,99181.16
2024-04-24T01:56:17.487Z,99178.28
2024-04-24T01:56:48.302Z,99186.56
2024-04-24T01:57:19.085Z,99183.50
2024-04-24T01:57:49.875Z,99176.47
2024-04-24T01:58:21.293Z,99177.50
2024-04-24T01:58:52.112Z,99183.31
2024-04-24T01:59:22.944Z,99181.75
2024-04-24T01:59:53.825Z,99184.63
2024-04-24T02:00:24.614Z,99178.16
2024-04-24T02:00:55.482Z,99182.59
2024-04-24T02:01:26.294Z,99178.59
2024-04-24T02:01:57.164Z,99183.56
2024-04-24T02:02:28.059Z,99182.66
2024-04-24T02:02:58.893Z,99183.75
2024-04-24T02:03:29.709Z,99185.78
2024-04-24T02:04:00.561Z,99179.94
2024-04-24T02:04:31.377Z,99184.00
2024-04-24T02:05:02.686Z,99179.78
2024-04-24T02:05:34.278Z,99185.78
2024-04-24T02:06:05.197Z,99180.31
2024-04-24T02:06:35.975Z,99178.13
2024-04-24T02:07:06.754Z,99182.66
2024-04-24T02:07:37.539Z,99178.69
2024-04-24T02:08:08.399Z,99171.75
2024-04-24T02:08:39.186Z,99171.00
2024-04-24T02:09:10.168Z,99178.81
2024-04-24T02:09:41.119Z,99178.59
2024-04-24T02:10:11.946Z,99176.66
2024-04-24T02:10:42.964Z,99172.44
2024-04-24T02:11:20.461Z,99178.59
2024-04-24T02:11:59.559Z,99179.06
2024-04-24T02:12:37.688Z,99180.25
2024-04-24T02:13:08.502Z,99182.13
2024-04-24T02:13:39.293Z,99177.91
2024-04-24T02:14:10.107Z,99179.97
2024-04-24T02:14:40.982Z,99172.69
2024-04-24T02:15:11.772Z,99177.19
2024-04-24T02:15:42.568Z,99178.09
2024-04-24T02:16:13.358Z,99184.16
2024-04-24T02:16:44.152Z,99185.41
2024-04-24T02:17:15.119Z,99178.75
2024-04-24T02:17:46.025Z,99180.19
2024-04-24T02:18:17.011Z,99181.22
2024-04-24T02:18:47.944Z,99176.28
2024-04-24T02:19:18.770Z,99178.22
2024-04-24T02:19:49.691Z,99169.53
2024-04-24T02:20:20.651Z,99173.75
2024-04-24T02:20:51.460Z,99177.81
2024-04-24T02:21:22.262Z,99175.59
2024-04-24T02:21:53.049Z,99178.44
2024-04-24T02:22:23.839Z,99170.44
2024-04-24T02:22:56.750Z,99174.50
2024-04-24T02:23:31.455Z,99166.31
2024-04-24T02:24:02.300Z,99169.47
2024-04-24T02:24:51.936Z,99175.41
2024-04-24T02:25:35.013Z,99169.41
2024-04-24T02:26:09.306Z,99174.34
2024-04-24T02:26:40.175Z,99167.25
2024-04-24T02:27:11.019Z,99170.34
2024-04-24T02:27:41.802Z,99166.56
2024-04-24T02:28:12.663Z,99175.75
2024-04-24T02:28:43.489Z,99168.69
2024-04-24T02:29:14.324Z,99168.69
2024-04-24T02:29:51.830Z,99164.91
2024-04-24T02:30:27.116Z,99170.59
2024-04-24T02:30:57.915Z,99165.00
2024-04-24T02:31:28.726Z,99162.56
2024-04-24T02:31:59.564Z,99166.41
2024-04-24T02:32:30.500Z,99160.97
2024-04-24T02:33:02.131Z,99159.47
2024-04-24T02:33:33.053Z,99153.38
2024-04-24T02:34:03.896Z,99156.75
2024-04-24T02:34:34.765Z,99167.13
2024-04-24T02:35:05.671Z,99163.97
2024-04-24T02:35:36.493Z,99162.63
2024-04-24T02:36:07.334Z,99163.69
2024-04-24T02:36:38.144Z,99165.25
2024-04-24T02:37:08.934Z,99163.22
2024-04-24T02:37:40.261Z,99165.47
2024-04-24T02:38:11.125Z,99168.63
2024-04-24T02:38:42.005Z,99155.25
2024-04-24T02:39:12.867Z,99160.81
2024-04-24T02:39:43.809Z,99155.38
2024-04-24T02:40:14.590Z,99164.09
2024-04-24T02:40:45.522Z,99155.38
2024-04-24T02:41:16.484Z,99157.53
2024-04-24T02:41:47.323Z,99160.81
2024-04-24T02:42:18.128Z,99151.66
2024-04-24T02:42:49.209Z,99157.69
2024-04-24T02:43:20.060Z,99152.47
2024-04-24T02:43:50.873Z,99155.41
2024-04-24T02:44:21.884Z,99157.53
2024-04-24T02:44:52.914Z,99157.38
2024-04-24T02:45:23.709Z,99153.22
2024-04-24T02:45:54.768Z,99152.63
2024-04-24T02:46:25.576Z,99156.75
2024-04-24T02:46:56.444Z,99155.03
2024-04-24T02:47:27.430Z,99150.31
2024-04-24T02:47:58.320Z,99160.69
2024-04-24T02:48:29.258Z,99151.34
2024-04-24T02:49:00.117Z,99156.91
2024-04-24T02:49:30.909Z,99150.31
2024-04-24T02:50:01.802Z,99154.66
2024-04-24T02:50:32.650Z,99152.78
2024-04-24T02:51:03.719Z,99156.09
2024-04-24T02:51:34.503Z,99149.25
2024-04-24T02:52:05.389Z,99157.75
2024-04-24T02:52:36.237Z,99155.25
2024-04-24T02:53:07.251Z,99149.31
2024-04-24T02:53:38.085Z,99157.16
2024-04-24T02:54:08.895Z,99145.13
2024-04-24T02:54:39.684Z,99151.81
2024-04-24T02:55:10.546Z,99148.41
2024-04-24T02:55:41.375Z,99146.25
2024-04-24T02:56:12.262Z,99147.06
2024-04-24T02:56:43.063Z,99151.06
2024-04-24T02:57:13.852Z,99145.59
2024-04-24T02:57:44.866Z,99152.00
2024-04-24T02:58:15.709Z,99145.16
2024-04-24T02:58:46.530Z,99148.22
2024-04-24T02:59:17.351Z,99148.91
2024-04-24T02:59:48.175Z,99144.78
2024-04-24T03:00:18.980Z,99141.84
2024-04-24T03:00:49.811Z,99147.47
2024-04-24T03:01:20.613Z,99135.59
2024-04-24T03:01:51.533Z,99144.78
2024-04-24T03:02:22.436Z,99143.53
2024-04-24T03:02:53.446Z,99145.38
2024-04-24T03:03:24.437Z,99146.03
2024-04-24T03:03:55.299Z,99142.94
2024-04-24T03:04:26.119Z,99147.75
2024-04-24T03:04:56.930Z,99146.16
2024-04-24T03:05:27.801Z,99139.31
2024-04-24T03:05:58.611Z,99144.75
2024-04-24T03:06:29.408Z,99144.88
2024-04-24T03:07:00.229Z,99153.00
2024-04-24T03:07:31.050Z,99146.41
2024-04-24T03:08:01.888Z,99146.53
2024-04-24T03:08:32.831Z,99143.72
2024-04-24T03:09:03.619Z,99144.56
2024-04-24T03:09:35.387Z,99143.13
2024-04-24T03:10:06.468Z,99146.28
2024-04-24T03:10:37.256Z,99147.25
2024-04-24T03:11:08.143Z,99145.19
2024-04-24T03:11:39.837Z,99150.31
2024-04-24T03:12:10.716Z,99145.28
2024-04-24T03:12:41.500Z,99154.81
2024-04-24T03:13:12.283Z,99150.00
2024-04-24T03:13:43.136Z,99145.03
2024-04-24T03:14:20.637Z,99143.31
2024-04-24T03:14:51.605Z,99146.44
2024-04-24T03:15:22.387Z,99149.13
2024-04-24T03:15:53.200Z,99142.50
2024-04-24T03:16:33.484Z,99145.72
2024-04-24T03:17:04.434Z,99148.81
2024-04-24T03:17:37.061Z,99147.91
2024-04-24T03:18:07.982Z,99150.59
2024-04-24T03:18:38.866Z,99149.09
2024-04-24T03:19:09.754Z,99144.88
2024-04-24T03:19:40.619Z,99149.31
2024-04-24T03:20:11.521Z,99140.19
2024-04-24T03:20:42.392Z,99141.22
2024-04-24T03:21:20.143Z,99142.41
2024-04-24T03:21:51.293Z,99143.38
2024-04-24T03:22:22.100Z,99147.44
2024-04-24T03:22:52.934Z,99152.03
2024-04-24T03:23:23.814Z,99141.59
2024-04-24T03:23:54.645Z,99149.63
2024-04-24T03:24:25.440Z,99152.09
2024-04-24T03:24:56.236Z,99147.66
2024-04-24T03:25:27.029Z,99146.00
2024-04-24T03:25:57.829Z,99155.50
2024-04-24T03:26:28.755Z,99153.00
2024-04-24T03:26:59.605Z,99152.72
2024-04-24T03:27:30.393Z,99150.91
2024-04-24T03:28:01.236Z,99156.69
2024-04-24T03:28:32.036Z,99150.00
2024-04-24T03:29:02.852Z,99157.97
2024-04-24T03:29:33.707Z,99147.59
2024-04-24T03:30:05.036Z,99150.69
2024-04-24T03:30:35.876Z,99151.50
2024-04-24T03:31:06.848Z,99153.47
2024-04-24T03:31:37.660Z,99156.63
2024-04-24T03:32:08.514Z,99151.44
2024-04-24T03:32:39.522Z,99152.03
2024-04-24T03:33:10.732Z,99143.13
2024-04-24T03:33:41.814Z,99154.72
2024-04-24T03:34:12.635Z,99149.84
2024-04-24T03:34:43.428Z,99147.97
2024-04-24T03:35:14.314Z,99148.66
2024-04-24T03:35:45.176Z,99156.91
2024-04-24T03:36:15.961Z,99157.53
2024-04-24T03:36:46.747Z,99151.06
2024-04-24T03:37:17.546Z,99150.47
2024-04-24T03:37:48.370Z,99150.84
2024-04-24T03:38:19.701Z,99150.91
2024-04-24T03:38:50.547Z,99152.63
2024-04-24T03:39:21.345Z,99149.75
2024-04-24T03:39:52.199Z,99150.78
2024-04-24T03:40:23.003Z,99146.88
2024-04-24T03:40:53.818Z,99148.50
2024-04-24T03:41:24.712Z,99150.53
2024-04-24T03:41:55.522Z,99152.41
2024-04-24T03:42:26.357Z,99147.00
2024-04-24T03:42:57.162Z,99148.41
2024-04-24T03:43:29.478Z,99148.41
2024-04-24T03:44:00.308Z,99148.88
2024-04-24T03:44:31.357Z,99152.63
2024-04-24T03:45:02.444Z,99155.13
2024-04-24T03:45:33.248Z,99153.63
2024-04-24T03:46:04.060Z,99148.19
2024-04-24T03:46:34.872Z,99150.16
2024-04-24T03:47:05.851Z,99148.09
2024-04-24T03:47:36.800Z,99145.78
2024-04-24T03:48:07.753Z,99142.41
2024-04-24T03:48:41.208Z,99151.50
2024-04-24T03:49:12.566Z,99145.41
2024-04-24T03:49:43.424Z,99150.69
2024-04-24T03:50:14.280Z,99144.00
2024-04-24T03:50:45.081Z,99141.72
2024-04-24T03:51:15.947Z,99148.56
2024-04-24T03:51:46.731Z,99140.84
2024-04-24T03:52:19.935Z,99137.75
2024-04-24T03:52:50.751Z,99142.34
2024-04-24T03:53:22.764Z,99134.28
2024-04-24T03:53:53.641Z,99137.00
2024-04-24T03:54:24.426Z,99143.25
2024-04-24T03:54:55.229Z,99140.31
2024-04-24T03:55:26.097Z,99139.25
2024-04-24T03:55:56.974Z,99136.03
2024-04-24T03:56:27.870Z,99135.69
2024-04-24T03:56:58.691Z,99142.31
2024-04-24T03:57:29.485Z,99135.47
2024-04-24T03:58:00.280Z,99131.47
2024-04-24T03:58:31.071Z,99134.78
2024-04-24T03:59:01.996Z,99142.25
2024-04-24T03:59:32.835Z,99139.16
2024-04-24T04:00:03.963Z,99135.38
2024-04-24T04:00:34.754Z,99138.50
2024-04-24T04:01:05.565Z,99136.88
2024-04-24T04:01:36.378Z,99131.84
2024-04-24T04:02:07.240Z,99137.91
2024-04-24T04:02:38.195Z,99129.97
2024-04-24T04:03:11.719Z,99128.78
2024-04-24T04:03:42.640Z,99131.78
2024-04-24T04:04:13.467Z,99128.03
2024-04-24T04:04:44.549Z,99134.56
2024-04-24T04:05:15.368Z,99134.75
2024-04-24T04:05:46.191Z,99138.19
2024-04-24T04:06:17.021Z,99132.13
2024-04-24T04:06:47.864Z,99127.97
2024-04-24T04:07:18.705Z,99126.56
2024-04-24T04:07:58.843Z,99136.09
2024-04-24T04:08:30.048Z,99132.72
2024-04-24T04:09:00.974Z,99121.91
2024-04-24T04:09:31.825Z,99131.66
2024-04-24T04:10:03.212Z,99131.50
2024-04-24T04:10:33.993Z,99131.13
2024-04-24T04:11:04.816Z,99125.50
2024-04-24T04:11:35.914Z,99129.03
2024-04-24T04:12:09.469Z,99129.63
2024-04-24T04:12:43.628Z,99130.66
2024-04-24T04:13:14.417Z,99134.03
2024-04-24T04:13:45.964Z,99126.59
2024-04-24T04:14:16.911Z,99127.34
2024-04-24T04:14:47.751Z,99132.41
2024-04-24T04:15:18.543Z,99132.00
2024-04-24T04:15:49.344Z,99130.13
2024-04-24T04:16:20.137Z,99133.19
2024-04-24T04:16:50.961Z,99141.84
2024-04-24T04:17:21.833Z,99134.03
2024-04-24T04:17:52.864Z,99134.53
2024-04-24T04:18:23.839Z,99129.06
2024-04-24T04:18:54.752Z,99137.56
2024-04-24T04:19:25.636Z,99137.72
2024-04-24T04:19:56.491Z,99129.97
2024-04-24T04:20:27.365Z,99137.50
2024-04-24T04:20:58.189Z,99138.91
2024-04-24T04:21:29.050Z,99135.69
2024-04-24T04:22:00.119Z,99131.84
2024-04-24T04:22:30.916Z,99134.19
2024-04-24T04:23:01.996Z,99131.16
2024-04-24T04:23:33.143Z,99131.47
2024-04-24T04:24:04.117Z,99135.38
2024-04-24T04:24:34.903Z,99138.16
2024-04-24T04:25:05.953Z,99130.44
2024-04-24T04:25:36.745Z,99135.84
2024-04-24T04:26:07.645Z,99134.75
2024-04-24T04:26:38.507Z,99135.38
2024-04-24T04:27:09.367Z,99135.13
2024-04-24T04:27:40.158Z,99140.09
2024-04-24T04:28:11.006Z,99142.19
2024-04-24T04:28:41.797Z,99139.72
2024-04-24T04:29:12.780Z,99136.63
2024-04-24T04:29:43.594Z,99140.75
2024-04-24T04:30:14.997Z,99139.00
2024-04-24T04:30:50.747Z,99141.22
2024-04-24T04:31:21.575Z,99141.59
2024-04-24T04:31:52.375Z,99140.75
2024-04-24T04:32:23.405Z,99136.41
2024-04-24T04:32:54.383Z,99138.59
2024-04-24T04:33:25.280Z,99136.13
2024-04-24T04:33:56.194Z,99136.88
2024-04-24T04:34:26.994Z,99137.22
2024-04-24T04:34:57.816Z,99135.13
2024-04-24T04:35:28.699Z,99131.75
2024-04-24T04:36:03.918Z,99137.44
2024-04-24T04:36:34.831Z,99131.03
2024-04-24T04:37:05.653Z,99135.25
2024-04-24T04:37:39.495Z,99134.53
2024-04-24T04:38:10.669Z,99140.38
2024-04-24T04:38:41.503Z,99133.50
2024-04-24T04:39:13.674Z,99136.03
2024-04-24T04:39:44.935Z,99136.03
2024-04-24T04:40:15.715Z,99135.25
2024-04-24T04:40:47.496Z,99136.88
2024-04-24T04:41:18.332Z,99136.44
2024-04-24T04:41:49.145Z,99137.22
2024-04-24T04:42:19.935Z,99138.09
2024-04-24T04:42:50.754Z,99133.47
2024-04-24T04:43:24.255Z,99137.53
2024-04-24T04:43:56.652Z,99142.06
2024-04-24T04:44:27.572Z,99131.25
2024-04-24T04:44:58.425Z,99138.34
2024-04-24T04:45:29.919Z,99143.13
2024-04-24T04:46:00.768Z,99135.88
2024-04-24T04:46:31.557Z,99140.09
2024-04-24T04:47:02.406Z,99137.81
2024-04-24T04:47:33.394Z,99138.28
2024-04-24T04:48:07.888Z,99131.00
2024-04-24T04:48:38.799Z,99134.06
2024-04-24T04:49:09.632Z,99138.19
2024-04-24T04:49:40.412Z,99137.53
2024-04-24T04:50:11.251Z,99125.00
2024-04-24T04:50:42.554Z,99141.25
2024-04-24T04:51:13.403Z,99131.25
2024-04-24T04:51:44.264Z,99136.47
2024-04-24T04:52:15.047Z,99127.31
2024-04-24T04:52:45.888Z,99127.25
2024-04-24T04:53:16.759Z,99125.97
2024-04-24T04:53:47.564Z,99126.59
2024-04-24T04:54:18.374Z,99130.72
2024-04-24T04:54:49.158Z,99125.53
2024-04-24T04:55:20.068Z,99125.31
2024-04-24T04:55:50.948Z,99128.53
2024-04-24T04:56:21.809Z,99125.00
2024-04-24T04:56:52.685Z,99121.84
2024-04-24T04:57:23.476Z,99126.81
2024-04-24T04:57:54.394Z,99123.56
2024-04-24T04:58:25.336Z,99135.59
2024-04-24T04:58:56.226Z,99127.63
2024-04-24T04:59:27.170Z,99131.31
2024-04-24T04:59:58.002Z,99132.31
2024-04-24T05:00:29.018Z,99126.69
2024-04-24T05:00:59.933Z,99123.56
2024-04-24T05:01:30.808Z,99127.31
2024-04-24T05:02:01.613Z,99123.56
2024-04-24T05:02:33.478Z,99120.03
2024-04-24T05:03:07.164Z,99119.16
2024-04-24T05:03:38.116Z,99122.47
2024-04-24T05:04:08.942Z,99126.44
2024-04-24T05:04:39.803Z,99120.13
2024-04-24T05:05:11.309Z,99121.66
2024-04-24T05:05:42.146Z,99124.56
2024-04-24T05:06:12.952Z,99117.41
2024-04-24T05:06:43.788Z,99120.72
2024-04-24T05:07:14.580Z,99121.09
2024-04-24T05:07:45.952Z,99120.72
2024-04-24T05:08:16.777Z,99125.66
2024-04-24T05:08:49.590Z,99118.59
2024-04-24T05:09:21.724Z,99112.59
2024-04-24T05:09:52.519Z,99123.19
2024-04-24T05:10:23.319Z,99119.66
2024-04-24T05:10:54.308Z,99120.03
2024-04-24T05:11:25.256Z,99114.94
2024-04-24T05:11:56.213Z,99114.84
2024-04-24T05:12:27.084Z,99116.91
2024-04-24T05:12:57.934Z,99126.72
2024-04-24T05:13:28.725Z,99118.91
2024-04-24T05:13:59.582Z,99112.75
2024-04-24T05:14:30.403Z,99118.94
2024-04-24T05:15:01.230Z,99120.34
2024-04-24T05:15:32.044Z,99120.44
2024-04-24T05:16:02.983Z,99124.38
2024-04-24T05:16:33.771Z,99124.63
2024-04-24T05:17:04.606Z,99118.97
2024-04-24T05:17:35.532Z,99127.31
2024-04-24T05:18:06.851Z,99126.94
2024-04-24T05:18:38.487Z,99122.91
2024-04-24T05:19:09.544Z,99124.25
2024-04-24T05:19:40.365Z,99125.53
2024-04-24T05:20:11.218Z,99126.72
2024-04-24T05:20:42.079Z,99129.44
2024-04-24T05:21:12.900Z,99126.13
2024-04-24T05:21:43.709Z,99124.09
2024-04-24T05:22:14.500Z,99131.47
2024-04-24T05:22:50.527Z,99123.78
2024-04-24T05:23:21.387Z,99125.41
2024-04-24T05:23:52.181Z,99130.72
2024-04-24T05:24:22.983Z,99129.28
2024-04-24T05:24:53.865Z,99128.22
2024-04-24T05:25:27.427Z,99128.47
2024-04-24T05:25:58.350Z,99122.50
2024-04-24T05:26:47.639Z,99127.66
2024-04-24T05:27:36.762Z,99123.13
2024-04-24T05:28:26.730Z,99128.97
2024-04-24T05:29:03.892Z,99128.69
2024-04-24T05:29:34.767Z,99141.91
2024-04-24T05:30:06.009Z,99132.59
2024-04-24T05:30:36.797Z,99134.63
2024-04-24T05:31:07.589Z,99131.16
2024-04-24T05:31:38.407Z,99129.44
2024-04-24T05:32:09.311Z,99131.16
2024-04-24T05:32:40.220Z,99129.13
2024-04-24T05:33:11.121Z,99138.22
2024-04-24T05:33:42.193Z,99131.41
2024-04-24T05:34:13.128Z,99134.47
2024-04-24T05:34:43.947Z,99130.50
2024-04-24T05:35:14.814Z,99136.50
2024-04-24T05:35:45.710Z,99132.97
2024-04-24T05:36:16.521Z,99136.94
2024-04-24T05:36:47.328Z,99133.28
2024-04-24T05:37:18.117Z,99133.34
2024-04-24T05:37:49.004Z,99132.31
2024-04-24T05:38:19.898Z,99129.59
2024-04-24T05:38:50.768Z,99128.69
2024-04-24T05:39:21.638Z,99128.59
2024-04-24T05:39:52.576Z,99134.13
2024-04-24T05:40:23.411Z,99129.59
2024-04-24T05:40:54.326Z,99130.13
2024-04-24T05:41:25.197Z,99136.81
2024-04-24T05:41:56.490Z,99125.31
2024-04-24T05:42:27.312Z,99127.34
2024-04-24T05:42:58.159Z,99130.03
2024-04-24T05:43:28.960Z,99132.53
2024-04-24T05:43:59.831Z,99137.50
2024-04-24T05:44:33.990Z,99133.34
2024-04-24T05:45:04.925Z,99136.44
2024-04-24T05:45:35.720Z,99136.38
2024-04-24T05:46:06.521Z,99139.22
2024-04-24T05:46:37.383Z,99125.63
2024-04-24T05:47:08.281Z,99127.03
2024-04-24T05:47:39.224Z,99127.28
2024-04-24T05:48:10.193Z,99128.34
2024-04-24T05:48:41.142Z,99133.53
2024-04-24T05:49:12.010Z,99132.47
2024-04-24T05:49:42.802Z,99130.13
2024-04-24T05:50:13.806Z,99133.34
2024-04-24T05:50:44.637Z,99126.44
2024-04-24T05:51:15.441Z,99129.53
2024-04-24T05:51:46.238Z,99135.78
2024-04-24T05:52:17.029Z,99130.94
2024-04-24T05:52:47.823Z,99134.16
2024-04-24T05:53:18.753Z,99135.22
2024-04-24T05:53:49.620Z,99135.31
2024-04-24T05:54:20.402Z,99136.50
2024-04-24T05:54:51.977Z,99132.31
2024-04-24T05:55:25.656Z,99130.34
2024-04-24T05:55:56.512Z,99132.59
2024-04-24T05:56:27.374Z,99133.13
2024-04-24T05:56:58.354Z,99132.91
2024-04-24T05:57:29.635Z,99133.28
2024-04-24T05:58:00.503Z,99129.97
2024-04-24T05:58:31.298Z,99130.41
2024-04-24T05:59:02.119Z,99130.34
2024-04-24T05:59:33.095Z,99131.41
2024-04-24T06:00:06.896Z,99126.81
2024-04-24T06:00:37.764Z,99133.28
2024-04-24T06:01:08.656Z,99126.28
2024-04-24T06:01:39.469Z,99131.91
2024-04-24T06:02:10.270Z,99127.78
2024-04-24T06:02:41.099Z,99128.97
2024-04-24T06:03:11.978Z,99128.16
2024-04-24T06:03:42.807Z,99138.34
2024-04-24T06:04:13.675Z,99129.06
2024-04-24T06:04:46.818Z,99129.53
2024-04-24T06:05:17.662Z,99125.66
2024-04-24T06:05:48.506Z,99129.75
2024-04-24T06:06:19.334Z,99130.63
2024-04-24T06:06:52.433Z,99129.06
2024-04-24T06:07:24.713Z,99123.78
2024-04-24T06:07:56.089Z,99125.59
2024-04-24T06:08:26.952Z,99130.09
2024-04-24T06:08:57.749Z,99127.16
2024-04-24T06:09:28.602Z,99121.75
2024-04-24T06:09:59.864Z,99122.47